Wetterdaten: Woche 20.10.08 - 26.10.08 (KW43)
Datum Zeit Temperatur Luftfeuchte Luftdruck Niederschlag Windrichtung Wind
20.10.2008 00:00 4,8 C 91 % 1023,2 hPa 0,0 l/m N 0,0 km/h (0 Bft)
20.10.2008 01:00 4,3 C 92 % 1023,1 hPa 0,0 l/m N 0,0 km/h (0 Bft)
20.10.2008 02:00 3,9 C 92 % 1023,1 hPa 0,0 l/m N 0,0 km/h (0 Bft)
20.10.2008 03:00 3,8 C 95 % 1022,9 hPa 0,0 l/m N 0,0 km/h (0 Bft)
20.10.2008 04:00 3,5 C 94 % 1022,7 hPa 0,0 l/m N 0,3 km/h (0 Bft)
20.10.2008 05:00 2,9 C 93 % 1022,8 hPa 0,0 l/m N 0,0 km/h (0 Bft)
20.10.2008 06:00 2,4 C 94 % 1022,7 hPa 0,0 l/m N 0,0 km/h (0 Bft)
20.10.2008 07:00 2,4 C 96 % 1022,2 hPa 0,0 l/m S-SW 0,7 km/h (0 Bft)
20.10.2008 08:00 3,3 C 97 % 1022,3 hPa 0,0 l/m S-SW 6,4 km/h (2 Bft)
20.10.2008 09:00 7,0 C 99 % 1022,4 hPa 0,0 l/m SW 12,5 km/h (3 Bft)
20.10.2008 10:00 9,9 C 91 % 1022,5 hPa 0,0 l/m S 11,0 km/h (2 Bft)
20.10.2008 11:00 12,6 C 81 % 1022,3 hPa 0,0 l/m S-SW 10,5 km/h (2 Bft)
20.10.2008 12:00 15,3 C 74 % 1021,9 hPa 0,0 l/m S-SW 14,8 km/h (3 Bft)
20.10.2008 13:00 17,8 C 66 % 1021,0 hPa 0,0 l/m SW 18,2 km/h (3 Bft)
20.10.2008 14:00 18,1 C 63 % 1020,2 hPa 0,0 l/m W-SW 19,7 km/h (3 Bft)
20.10.2008 15:00 18,1 C 63 % 1019,6 hPa 0,0 l/m W 18,2 km/h (3 Bft)
20.10.2008 16:00 17,8 C 65 % 1019,2 hPa 0,0 l/m SW 15,0 km/h (3 Bft)
20.10.2008 17:00 16,7 C 69 % 1018,5 hPa 0,0 l/m SW 11,0 km/h (2 Bft)
20.10.2008 18:00 14,8 C 74 % 1018,1 hPa 0,0 l/m SW 3,1 km/h (1 Bft)
20.10.2008 19:00 13,6 C 79 % 1017,8 hPa 0,0 l/m N 0,9 km/h (0 Bft)
20.10.2008 20:00 12,0 C 83 % 1017,6 hPa 0,0 l/m N 1,2 km/h (1 Bft)
20.10.2008 21:00 10,7 C 87 % 1017,5 hPa 0,0 l/m N 0,4 km/h (0 Bft)
20.10.2008 22:00 9,6 C 89 % 1017,4 hPa 0,0 l/m N 0,0 km/h (0 Bft)
20.10.2008 23:00 8,8 C 92 % 1017,2 hPa 0,0 l/m N 2,0 km/h (1 Bft)
21.10.2008 00:00 9,1 C 94 % 1017,2 hPa 0,0 l/m SW 9,7 km/h (2 Bft)
21.10.2008 01:00 9,6 C 91 % 1017,1 hPa 0,0 l/m N 2,9 km/h (1 Bft)
21.10.2008 02:00 9,5 C 92 % 1016,9 hPa 0,0 l/m N 1,6 km/h (1 Bft)
21.10.2008 03:00 8,8 C 93 % 1016,4 hPa 0,0 l/m S-SW 2,7 km/h (1 Bft)
21.10.2008 04:00 9,8 C 91 % 1015,7 hPa 0,0 l/m SW 14,7 km/h (3 Bft)
21.10.2008 05:00 10,4 C 84 % 1015,4 hPa 0,0 l/m SW 12,9 km/h (3 Bft)
21.10.2008 06:00 10,6 C 83 % 1015,2 hPa 0,0 l/m SW 13,4 km/h (3 Bft)
21.10.2008 07:00 10,9 C 86 % 1014,8 hPa 0,0 l/m SW 11,8 km/h (2 Bft)
21.10.2008 08:00 11,5 C 86 % 1014,6 hPa 0,0 l/m SW 17,0 km/h (3 Bft)
21.10.2008 09:00 12,8 C 81 % 1014,5 hPa 0,0 l/m SW 15,8 km/h (3 Bft)
21.10.2008 10:00 13,6 C 80 % 1014,7 hPa 0,0 l/m SW 14,2 km/h (3 Bft)
21.10.2008 11:00 14,7 C 75 % 1014,4 hPa 0,0 l/m SW 17,8 km/h (3 Bft)
21.10.2008 12:00 14,5 C 81 % 1013,9 hPa 0,0 l/m S 19,0 km/h (3 Bft)
21.10.2008 13:00 16,9 C 74 % 1013,1 hPa 0,0 l/m SW 17,6 km/h (3 Bft)
21.10.2008 14:00 17,7 C 68 % 1012,3 hPa 0,0 l/m SW 18,1 km/h (3 Bft)
21.10.2008 15:00 16,9 C 71 % 1011,8 hPa 0,0 l/m S-SW 12,9 km/h (3 Bft)
21.10.2008 16:00 17,5 C 68 % 1011,6 hPa 0,0 l/m W-SW 12,6 km/h (3 Bft)
21.10.2008 17:00 16,9 C 68 % 1011,4 hPa 0,0 l/m SW 9,5 km/h (2 Bft)
21.10.2008 18:00 16,0 C 74 % 1011,6 hPa 0,0 l/m S-SW 3,3 km/h (1 Bft)
21.10.2008 19:00 14,8 C 80 % 1012,2 hPa 0,0 l/m N 0,1 km/h (0 Bft)
21.10.2008 20:00 13,9 C 84 % 1012,9 hPa 0,0 l/m W 0,5 km/h (0 Bft)
21.10.2008 21:00 13,4 C 89 % 1012,9 hPa 0,0 l/m S-SO 2,5 km/h (1 Bft)
21.10.2008 22:00 12,9 C 90 % 1013,0 hPa 0,0 l/m S 1,2 km/h (1 Bft)
21.10.2008 23:00 12,4 C 91 % 1013,0 hPa 0,0 l/m S-SO 2,5 km/h (1 Bft)
22.10.2008 00:00 12,2 C 91 % 1013,0 hPa 0,0 l/m N 0,8 km/h (0 Bft)
22.10.2008 01:00 11,9 C 91 % 1012,8 hPa 0,0 l/m N 0,0 km/h (0 Bft)
22.10.2008 02:00 11,3 C 92 % 1012,9 hPa 0,0 l/m N 0,4 km/h (0 Bft)
22.10.2008 03:00 11,1 C 95 % 1013,0 hPa 0,0 l/m N-NO 2,4 km/h (1 Bft)
22.10.2008 04:00 11,4 C 96 % 1012,9 hPa 0,0 l/m N 4,4 km/h (1 Bft)
22.10.2008 05:00 11,4 C 95 % 1012,9 hPa 0,0 l/m N 4,4 km/h (1 Bft)
22.10.2008 06:00 11,1 C 92 % 1013,2 hPa 0,0 l/m N-NO 12,3 km/h (3 Bft)
22.10.2008 07:00 10,2 C 93 % 1013,6 hPa 0,0 l/m NO 14,5 km/h (3 Bft)
22.10.2008 08:00 9,4 C 95 % 1014,5 hPa 0,0 l/m N-NO 13,8 km/h (3 Bft)
22.10.2008 09:00 8,8 C 95 % 1015,5 hPa 0,0 l/m N 15,0 km/h (3 Bft)
22.10.2008 10:00 8,3 C 94 % 1016,4 hPa 0,0 l/m N-NO 15,7 km/h (3 Bft)
22.10.2008 11:00 8,3 C 93 % 1017,1 hPa 0,0 l/m NO 14,9 km/h (3 Bft)
22.10.2008 12:00 8,2 C 93 % 1017,7 hPa 0,0 l/m N-NO 15,8 km/h (3 Bft)
22.10.2008 13:00 8,2 C 92 % 1017,9 hPa 0,0 l/m N-NO 13,2 km/h (3 Bft)
22.10.2008 14:00 8,2 C 89 % 1018,4 hPa 0,0 l/m NO 15,8 km/h (3 Bft)
22.10.2008 15:00 7,6 C 91 % 1019,0 hPa 0,0 l/m NO 15,4 km/h (3 Bft)
22.10.2008 16:00 7,0 C 92 % 1019,9 hPa 0,2 l/m N-NW 16,1 km/h (3 Bft)
22.10.2008 17:00 6,4 C 93 % 1021,1 hPa 0,0 l/m N-NO 14,0 km/h (3 Bft)
22.10.2008 18:00 6,0 C 94 % 1022,3 hPa 0,4 l/m N-NO 13,7 km/h (3 Bft)
22.10.2008 19:00 5,6 C 92 % 1024,0 hPa 0,4 l/m N-NO 18,0 km/h (3 Bft)
22.10.2008 20:00 5,0 C 93 % 1025,4 hPa 1,2 l/m N-NO 13,0 km/h (3 Bft)
22.10.2008 21:00 4,6 C 94 % 1026,6 hPa 0,8 l/m N 8,2 km/h (2 Bft)
22.10.2008 22:00 4,4 C 95 % 1027,7 hPa 0,6 l/m N-NO 6,9 km/h (2 Bft)
22.10.2008 23:00 4,3 C 94 % 1028,6 hPa 0,6 l/m N-NO 5,3 km/h (1 Bft)
23.10.2008 00:00 4,1 C 94 % 1028,6 hPa 0,4 l/m N-NO 3,5 km/h (1 Bft)
23.10.2008 01:00 4,1 C 95 % 1028,6 hPa 0,0 l/m NO 4,0 km/h (1 Bft)
23.10.2008 02:00 4,1 C 95 % 1028,9 hPa 0,2 l/m N-NO 4,4 km/h (1 Bft)
23.10.2008 03:00 4,1 C 95 % 1029,0 hPa 0,0 l/m NO 6,1 km/h (2 Bft)
23.10.2008 04:00 4,2 C 95 % 1028,7 hPa 0,2 l/m O 5,5 km/h (1 Bft)
23.10.2008 05:00 4,2 C 95 % 1028,8 hPa 0,0 l/m N-NO 5,1 km/h (1 Bft)
23.10.2008 06:00 4,2 C 94 % 1029,0 hPa 0,0 l/m O-NO 8,2 km/h (2 Bft)
23.10.2008 07:00 4,2 C 93 % 1029,0 hPa 0,0 l/m O-NO 9,3 km/h (2 Bft)
23.10.2008 08:00 3,9 C 94 % 1029,4 hPa 0,0 l/m NO 9,5 km/h (2 Bft)
23.10.2008 09:00 4,4 C 93 % 1029,6 hPa 0,0 l/m O-NO 14,2 km/h (3 Bft)
23.10.2008 10:00 5,9 C 88 % 1029,5 hPa 0,0 l/m O-NO 19,8 km/h (4 Bft)
23.10.2008 11:00 6,7 C 83 % 1029,3 hPa 0,0 l/m O 24,1 km/h (4 Bft)
23.10.2008 12:00 6,9 C 79 % 1029,0 hPa 0,0 l/m O-SO 25,2 km/h (4 Bft)
23.10.2008 13:00 7,0 C 79 % 1028,5 hPa 0,0 l/m O-NO 22,9 km/h (4 Bft)
23.10.2008 14:00 6,9 C 81 % 1027,8 hPa 0,0 l/m O-NO 20,4 km/h (4 Bft)
23.10.2008 15:00 6,9 C 79 % 1027,3 hPa 0,0 l/m O 22,1 km/h (4 Bft)
23.10.2008 16:00 7,1 C 80 % 1026,9 hPa 0,0 l/m O-SO 17,3 km/h (3 Bft)
23.10.2008 17:00 7,0 C 82 % 1026,2 hPa 0,0 l/m O 11,8 km/h (2 Bft)
23.10.2008 18:00 6,7 C 82 % 1026,1 hPa 0,0 l/m O 14,6 km/h (3 Bft)
23.10.2008 19:00 6,4 C 84 % 1026,3 hPa 0,0 l/m O-SO 9,0 km/h (2 Bft)
23.10.2008 20:00 6,2 C 86 % 1026,3 hPa 0,0 l/m O-NO 7,4 km/h (2 Bft)
23.10.2008 21:00 6,2 C 86 % 1026,1 hPa 0,0 l/m O-NO 4,4 km/h (1 Bft)
23.10.2008 22:00 6,2 C 87 % 1025,9 hPa 0,0 l/m O-SO 4,4 km/h (1 Bft)
23.10.2008 23:00 6,1 C 89 % 1025,7 hPa 0,0 l/m N-NO 2,1 km/h (1 Bft)
24.10.2008 00:00 6,1 C 89 % 1025,6 hPa 0,0 l/m N 0,8 km/h (0 Bft)
24.10.2008 01:00 6,0 C 90 % 1025,2 hPa 0,0 l/m N 0,8 km/h (0 Bft)
24.10.2008 02:00 6,0 C 91 % 1025,0 hPa 0,0 l/m W-SW 1,7 km/h (1 Bft)
24.10.2008 03:00 6,1 C 90 % 1024,6 hPa 0,0 l/m SW 2,4 km/h (1 Bft)
24.10.2008 04:00 6,1 C 91 % 1024,4 hPa 0,0 l/m N 1,9 km/h (1 Bft)
24.10.2008 05:00 6,1 C 91 % 1024,3 hPa 0,0 l/m N 0,4 km/h (0 Bft)
24.10.2008 06:00 6,1 C 92 % 1024,2 hPa 0,0 l/m N 1,5 km/h (1 Bft)
24.10.2008 07:00 6,1 C 92 % 1024,2 hPa 0,0 l/m SW 4,1 km/h (1 Bft)
24.10.2008 08:00 6,3 C 92 % 1024,6 hPa 0,0 l/m W 3,1 km/h (1 Bft)
24.10.2008 09:00 6,3 C 89 % 1025,0 hPa 0,0 l/m W 9,8 km/h (2 Bft)
24.10.2008 10:00 6,6 C 88 % 1025,1 hPa 0,0 l/m W 6,5 km/h (2 Bft)
24.10.2008 11:00 7,3 C 85 % 1025,1 hPa 0,0 l/m W-NW 6,4 km/h (2 Bft)
24.10.2008 12:00 8,0 C 83 % 1025,2 hPa 0,0 l/m N-NW 4,4 km/h (1 Bft)
24.10.2008 13:00 8,6 C 81 % 1025,0 hPa 0,0 l/m N 5,7 km/h (1 Bft)
24.10.2008 14:00 9,5 C 79 % 1024,5 hPa 0,0 l/m N 5,7 km/h (1 Bft)
24.10.2008 15:00 10,4 C 76 % 1024,3 hPa 0,0 l/m N-NO 6,7 km/h (2 Bft)
24.10.2008 16:00 10,3 C 78 % 1024,5 hPa 0,0 l/m N-NO 6,4 km/h (2 Bft)
24.10.2008 17:00 9,7 C 80 % 1024,9 hPa 0,0 l/m N 3,1 km/h (1 Bft)
24.10.2008 18:00 8,7 C 83 % 1025,7 hPa 0,0 l/m N 0,8 km/h (0 Bft)
24.10.2008 19:00 6,7 C 87 % 1026,5 hPa 0,0 l/m N 0,5 km/h (0 Bft)
24.10.2008 20:00 5,3 C 90 % 1027,3 hPa 0,0 l/m N 0,1 km/h (0 Bft)
24.10.2008 21:00 4,2 C 92 % 1027,8 hPa 0,0 l/m N 0,4 km/h (0 Bft)
24.10.2008 22:00 3,4 C 93 % 1028,4 hPa 0,0 l/m N 0,1 km/h (0 Bft)
24.10.2008 23:00 2,9 C 95 % 1029,0 hPa 0,0 l/m N-NW 4,8 km/h (1 Bft)
25.10.2008 00:00 2,5 C 96 % 1029,3 hPa 0,0 l/m N-NW 4,9 km/h (1 Bft)
25.10.2008 01:00 2,6 C 97 % 1029,9 hPa 0,0 l/m N-NW 3,2 km/h (1 Bft)
25.10.2008 02:00 2,5 C 97 % 1030,4 hPa 0,0 l/m N-NO 2,9 km/h (1 Bft)
25.10.2008 03:00 2,3 C 97 % 1030,7 hPa 0,0 l/m N-NO 3,2 km/h (1 Bft)
25.10.2008 04:00 1,9 C 97 % 1031,0 hPa 0,0 l/m N 3,7 km/h (1 Bft)
25.10.2008 05:00 1,3 C 97 % 1031,3 hPa 0,0 l/m N 3,6 km/h (1 Bft)
25.10.2008 06:00 1,2 C 98 % 1031,5 hPa 0,0 l/m N-NW 5,2 km/h (1 Bft)
25.10.2008 07:00 1,2 C 98 % 1031,7 hPa 0,0 l/m NW 4,0 km/h (1 Bft)
25.10.2008 08:00 1,7 C 98 % 1032,1 hPa 0,0 l/m N-NW 5,6 km/h (1 Bft)
25.10.2008 09:00 2,1 C 98 % 1032,7 hPa 0,0 l/m N-NW 5,6 km/h (1 Bft)
25.10.2008 10:00 3,4 C 99 % 1033,0 hPa 0,0 l/m N 6,4 km/h (2 Bft)
25.10.2008 11:00 5,0 C 95 % 1033,2 hPa 0,0 l/m O-NO 8,8 km/h (2 Bft)
25.10.2008 12:00 4,8 C 93 % 1033,3 hPa 0,0 l/m NO 11,0 km/h (2 Bft)
25.10.2008 13:00 5,7 C 90 % 1032,6 hPa 0,0 l/m N-NO 9,5 km/h (2 Bft)
25.10.2008 14:00 7,9 C 84 % 1031,5 hPa 0,0 l/m NO 8,4 km/h (2 Bft)
25.10.2008 15:00 9,0 C 80 % 1031,0 hPa 0,0 l/m N 11,5 km/h (2 Bft)
25.10.2008 16:00 8,1 C 83 % 1031,1 hPa 0,0 l/m N-NO 13,7 km/h (3 Bft)
25.10.2008 17:00 7,8 C 85 % 1031,1 hPa 0,0 l/m N-NO 8,4 km/h (2 Bft)
25.10.2008 18:00 7,0 C 87 % 1031,2 hPa 0,0 l/m N 6,6 km/h (2 Bft)
25.10.2008 19:00 5,7 C 90 % 1031,5 hPa 0,0 l/m N-NW 6,4 km/h (2 Bft)
25.10.2008 20:00 5,0 C 93 % 1031,7 hPa 0,0 l/m N 5,5 km/h (1 Bft)
25.10.2008 21:00 4,4 C 93 % 1031,6 hPa 0,0 l/m N 3,3 km/h (1 Bft)
25.10.2008 22:00 3,8 C 93 % 1031,5 hPa 0,0 l/m N 0,5 km/h (0 Bft)
25.10.2008 23:00 3,1 C 94 % 1031,7 hPa 0,0 l/m N 0,1 km/h (0 Bft)
26.10.2008 00:00 2,5 C 96 % 1031,6 hPa 0,0 l/m N 0,3 km/h (0 Bft)
26.10.2008 01:00 2,6 C 97 % 1031,4 hPa 0,0 l/m N 0,0 km/h (0 Bft)
26.10.2008 02:00 3,9 C 98 % 1031,0 hPa 0,0 l/m W 3,8 km/h (1 Bft)
26.10.2008 03:00 4,7 C 99 % 1029,9 hPa 0,0 l/m SW 4,5 km/h (1 Bft)
26.10.2008 04:00 5,1 C 99 % 1029,2 hPa 0,0 l/m SW 7,2 km/h (2 Bft)
26.10.2008 05:00 5,3 C 99 % 1029,0 hPa 0,0 l/m SW 10,6 km/h (2 Bft)
26.10.2008 06:00 5,2 C 99 % 1028,3 hPa 0,0 l/m SW 10,3 km/h (2 Bft)
26.10.2008 07:00 4,8 C 98 % 1028,2 hPa 0,0 l/m W 10,2 km/h (2 Bft)
26.10.2008 08:00 4,9 C 99 % 1028,5 hPa 0,0 l/m W 8,6 km/h (2 Bft)
26.10.2008 09:00 5,3 C 99 % 1028,4 hPa 0,0 l/m S-SW 10,6 km/h (2 Bft)
26.10.2008 10:00 6,0 C 99 % 1028,3 hPa 0,0 l/m W-SW 11,8 km/h (2 Bft)
26.10.2008 11:00 7,1 C 96 % 1027,5 hPa 0,0 l/m SW 15,6 km/h (3 Bft)
26.10.2008 12:00 7,2 C 95 % 1026,8 hPa 0,0 l/m SW 17,8 km/h (3 Bft)
26.10.2008 13:00 7,8 C 92 % 1025,5 hPa 0,0 l/m SW 14,2 km/h (3 Bft)
26.10.2008 14:00 8,2 C 90 % 1024,5 hPa 0,0 l/m S-SW 12,9 km/h (3 Bft)
26.10.2008 15:00 8,6 C 89 % 1023,5 hPa 0,0 l/m S 8,0 km/h (2 Bft)
26.10.2008 16:00 8,8 C 89 % 1023,1 hPa 0,0 l/m S-SW 1,7 km/h (1 Bft)
26.10.2008 17:00 7,9 C 90 % 1022,7 hPa 0,0 l/m S-SW 3,5 km/h (1 Bft)
26.10.2008 18:00 6,6 C 92 % 1022,6 hPa 0,0 l/m N 0,8 km/h (0 Bft)
26.10.2008 19:00 6,2 C 96 % 1022,3 hPa 0,0 l/m S 7,2 km/h (2 Bft)
26.10.2008 20:00 6,6 C 97 % 1021,5 hPa 0,0 l/m SW 7,4 km/h (2 Bft)
26.10.2008 21:00 6,6 C 96 % 1021,2 hPa 0,0 l/m O-SO 3,2 km/h (1 Bft)
26.10.2008 22:00 6,5 C 96 % 1020,2 hPa 0,0 l/m O-SO 4,5 km/h (1 Bft)
26.10.2008 23:00 6,0 C 95 % 1019,2 hPa 0,0 l/m N 0,8 km/h (0 Bft)
Min-Datum _ 25.10.08 20.10.08 21.10.08 - - 20.10.08
_ Min-Zeit 06:05 13:55 16:25 - - 00:00
Minimum _ 1,1 C 62 % 1011,4 hPa - - 0,0 km/h (0 Bft)
Max-Datum _ 21.10.08 20.10.08 25.10.08 22.10.08 - 23.10.08
_ Max-Zeit 14:40 09:25 11:25 20:10 - 12:05
Maximum _ 18,4 C 99 % 1033,4 hPa 1,2 l/m - 30,6 km/h
O-SO (5 Bft)
Durchschnitt _ 7,7 C 89 % 1023,4 hPa #5,0 l/m SW 7,8 km/h (2 Bft)